sensor_id;sensor_type;location;lat;lon;timestamp;pressure;altitude;pressure_sealevel;temperature;humidity
44441;BME280;30146;52.268;20.944;2022-10-23T00:00:22;100264.40;;;13.99;75.99
44441;BME280;30146;52.268;20.944;2022-10-23T00:02:54;100266.81;;;13.99;76.11
44441;BME280;30146;52.268;20.944;2022-10-23T00:05:26;100266.81;;;13.99;76.16
44441;BME280;30146;52.268;20.944;2022-10-23T00:07:58;100268.70;;;13.99;76.08
44441;BME280;30146;52.268;20.944;2022-10-23T00:10:30;100271.45;;;13.99;76.23
44441;BME280;30146;52.268;20.944;2022-10-23T00:13:01;100269.22;;;13.99;76.16
44441;BME280;30146;52.268;20.944;2022-10-23T00:15:34;100270.09;;;13.99;76.18
44441;BME280;30146;52.268;20.944;2022-10-23T00:18:06;100272.11;;;14.00;76.26
44441;BME280;30146;52.268;20.944;2022-10-23T00:20:37;100277.29;;;14.00;76.20
44441;BME280;30146;52.268;20.944;2022-10-23T00:23:08;100278.16;;;13.99;76.18
44441;BME280;30146;52.268;20.944;2022-10-23T00:25:39;100279.71;;;13.99;76.17
44441;BME280;30146;52.268;20.944;2022-10-23T00:28:10;100280.42;;;13.98;76.20
44441;BME280;30146;52.268;20.944;2022-10-23T00:30:41;100282.48;;;13.97;76.30
44441;BME280;30146;52.268;20.944;2022-10-23T00:33:12;100282.02;;;13.96;76.29
44441;BME280;30146;52.268;20.944;2022-10-23T00:35:43;100285.79;;;13.96;76.29
44441;BME280;30146;52.268;20.944;2022-10-23T00:38:14;100282.89;;;13.96;76.38
44441;BME280;30146;52.268;20.944;2022-10-23T00:40:45;100290.13;;;13.94;76.33
44441;BME280;30146;52.268;20.944;2022-10-23T00:43:20;100292.91;;;13.93;76.33
44441;BME280;30146;52.268;20.944;2022-10-23T00:45:52;100294.66;;;13.92;76.37
44441;BME280;30146;52.268;20.944;2022-10-23T00:48:24;100296.92;;;13.91;76.37
44441;BME280;30146;52.268;20.944;2022-10-23T00:50:55;100299.88;;;13.89;76.46
44441;BME280;30146;52.268;20.944;2022-10-23T00:53:26;100299.35;;;13.90;76.54
44441;BME280;30146;52.268;20.944;2022-10-23T00:55:58;100303.70;;;13.87;76.46
44441;BME280;30146;52.268;20.944;2022-10-23T00:58:32;100308.91;;;13.85;76.45
44441;BME280;30146;52.268;20.944;2022-10-23T01:01:13;100315.13;;;13.84;76.49
44441;BME280;30146;52.268;20.944;2022-10-23T01:03:46;100315.52;;;13.82;76.53
44441;BME280;30146;52.268;20.944;2022-10-23T01:06:23;100315.71;;;13.80;76.56
44441;BME280;30146;52.268;20.944;2022-10-23T01:09:02;100315.37;;;13.80;76.76
44441;BME280;30146;52.268;20.944;2022-10-23T01:11:42;100319.34;;;13.79;76.74
44441;BME280;30146;52.268;20.944;2022-10-23T01:14:22;100322.11;;;13.79;76.80
44441;BME280;30146;52.268;20.944;2022-10-23T01:17:02;100326.22;;;13.80;76.80
44441;BME280;30146;52.268;20.944;2022-10-23T01:19:50;100328.79;;;13.80;76.89
44441;BME280;30146;52.268;20.944;2022-10-23T01:22:40;100328.28;;;13.79;76.91
44441;BME280;30146;52.268;20.944;2022-10-23T01:25:26;100331.89;;;13.79;76.95
44441;BME280;30146;52.268;20.944;2022-10-23T01:28:02;100334.08;;;13.81;76.96
44441;BME280;30146;52.268;20.944;2022-10-23T01:30:35;100335.63;;;13.81;77.00
44441;BME280;30146;52.268;20.944;2022-10-23T01:33:18;100335.15;;;13.80;76.95
44441;BME280;30146;52.268;20.944;2022-10-23T01:35:59;100336.52;;;13.80;77.06
44441;BME280;30146;52.268;20.944;2022-10-23T01:38:37;100337.55;;;13.80;77.12
44441;BME280;30146;52.268;20.944;2022-10-23T01:41:24;100334.60;;;13.81;77.18
44441;BME280;30146;52.268;20.944;2022-10-23T01:44:02;100331.36;;;13.80;77.20
44441;BME280;30146;52.268;20.944;2022-10-23T01:46:37;100333.92;;;13.80;77.14
44441;BME280;30146;52.268;20.944;2022-10-23T01:49:12;100332.91;;;13.80;77.19
44441;BME280;30146;52.268;20.944;2022-10-23T01:51:47;100333.92;;;13.81;77.24
44441;BME280;30146;52.268;20.944;2022-10-23T01:54:25;100333.91;;;13.81;77.32
44441;BME280;30146;52.268;20.944;2022-10-23T01:57:02;100335.96;;;13.81;77.29
44441;BME280;30146;52.268;20.944;2022-10-23T01:59:33;100339.21;;;13.82;77.33
44441;BME280;30146;52.268;20.944;2022-10-23T02:02:09;100336.98;;;13.82;77.34
44441;BME280;30146;52.268;20.944;2022-10-23T02:04:48;100338.36;;;13.82;77.34
44441;BME280;30146;52.268;20.944;2022-10-23T02:07:20;100343.85;;;13.82;77.33
44441;BME280;30146;52.268;20.944;2022-10-23T02:09:52;100340.41;;;13.82;77.33
44441;BME280;30146;52.268;20.944;2022-10-23T02:12:28;100341.61;;;13.83;77.44
44441;BME280;30146;52.268;20.944;2022-10-23T02:15:10;100346.58;;;13.83;77.43
44441;BME280;30146;52.268;20.944;2022-10-23T02:17:50;100346.74;;;13.83;77.45
44441;BME280;30146;52.268;20.944;2022-10-23T02:20:31;100351.20;;;13.84;77.39
44441;BME280;30146;52.268;20.944;2022-10-23T02:23:16;100353.24;;;13.84;77.50
44441;BME280;30146;52.268;20.944;2022-10-23T02:25:54;100354.26;;;13.86;77.48
44441;BME280;30146;52.268;20.944;2022-10-23T02:28:30;100359.75;;;13.86;77.49
44441;BME280;30146;52.268;20.944;2022-10-23T02:31:04;100362.67;;;13.86;77.51
44441;BME280;30146;52.268;20.944;2022-10-23T02:33:38;100366.73;;;13.88;77.48
44441;BME280;30146;52.268;20.944;2022-10-23T02:36:09;100366.74;;;13.88;77.54
44441;BME280;30146;52.268;20.944;2022-10-23T02:38:42;100369.32;;;13.88;77.61
44441;BME280;30146;52.268;20.944;2022-10-23T02:41:27;100369.98;;;13.89;77.57
44441;BME280;30146;52.268;20.944;2022-10-23T02:44:09;100368.64;;;13.88;77.48
44441;BME280;30146;52.268;20.944;2022-10-23T02:46:52;100368.34;;;13.86;77.50
44441;BME280;30146;52.268;20.944;2022-10-23T02:49:33;100370.59;;;13.85;77.48
44441;BME280;30146;52.268;20.944;2022-10-23T02:52:13;100376.95;;;13.85;77.50
44441;BME280;30146;52.268;20.944;2022-10-23T02:57:54;100377.65;;;13.84;77.42
44441;BME280;30146;52.268;20.944;2022-10-23T03:00:30;100376.61;;;13.85;77.53
44441;BME280;30146;52.268;20.944;2022-10-23T03:03:01;100378.14;;;13.86;77.53
44441;BME280;30146;52.268;20.944;2022-10-23T03:05:37;100375.05;;;13.85;77.55
44441;BME280;30146;52.268;20.944;2022-10-23T03:08:10;100376.25;;;13.86;77.62
44441;BME280;30146;52.268;20.944;2022-10-23T03:10:43;100370.74;;;13.86;77.56
44441;BME280;30146;52.268;20.944;2022-10-23T03:13:14;100373.84;;;13.86;77.51
44441;BME280;30146;52.268;20.944;2022-10-23T03:15:46;100374.69;;;13.86;77.56
44441;BME280;30146;52.268;20.944;2022-10-23T03:18:17;100376.09;;;13.85;77.58
44441;BME280;30146;52.268;20.944;2022-10-23T03:20:51;100370.77;;;13.85;77.45
44441;BME280;30146;52.268;20.944;2022-10-23T03:23:23;100370.89;;;13.87;77.51
44441;BME280;30146;52.268;20.944;2022-10-23T03:25:54;100374.11;;;13.89;77.64
44441;BME280;30146;52.268;20.944;2022-10-23T03:28:33;100375.27;;;13.91;77.65
44441;BME280;30146;52.268;20.944;2022-10-23T03:31:04;100372.14;;;13.93;77.67
44441;BME280;30146;52.268;20.944;2022-10-23T03:33:36;100372.59;;;13.95;77.63
44441;BME280;30146;52.268;20.944;2022-10-23T03:36:12;100369.27;;;13.97;77.59
44441;BME280;30146;52.268;20.944;2022-10-23T03:38:45;100369.42;;;13.99;77.59
44441;BME280;30146;52.268;20.944;2022-10-23T03:41:16;100369.75;;;14.00;77.42
44441;BME280;30146;52.268;20.944;2022-10-23T03:43:46;100373.48;;;14.01;77.47
44441;BME280;30146;52.268;20.944;2022-10-23T03:46:17;100383.79;;;14.01;77.41
44441;BME280;30146;52.268;20.944;2022-10-23T03:48:53;100390.29;;;14.03;77.50
44441;BME280;30146;52.268;20.944;2022-10-23T03:51:27;100392.34;;;14.03;77.61
44441;BME280;30146;52.268;20.944;2022-10-23T03:53:59;100390.44;;;14.04;77.41
44441;BME280;30146;52.268;20.944;2022-10-23T03:56:30;100394.06;;;14.03;77.41
44441;BME280;30146;52.268;20.944;2022-10-23T03:59:01;100393.74;;;14.02;77.28
44441;BME280;30146;52.268;20.944;2022-10-23T04:01:32;100396.02;;;14.01;77.26
44441;BME280;30146;52.268;20.944;2022-10-23T04:04:03;100397.58;;;14.00;77.23
44441;BME280;30146;52.268;20.944;2022-10-23T04:06:35;100407.40;;;13.98;77.23
44441;BME280;30146;52.268;20.944;2022-10-23T04:09:06;100407.44;;;13.97;77.14
44441;BME280;30146;52.268;20.944;2022-10-23T04:11:40;100413.66;;;13.95;77.25
44441;BME280;30146;52.268;20.944;2022-10-23T04:14:13;100417.45;;;13.95;77.33
44441;BME280;30146;52.268;20.944;2022-10-23T04:16:44;100421.59;;;13.95;77.44
44441;BME280;30146;52.268;20.944;2022-10-23T04:19:15;100420.41;;;13.93;77.30
44441;BME280;30146;52.268;20.944;2022-10-23T04:21:47;100420.95;;;13.92;77.29
44441;BME280;30146;52.268;20.944;2022-10-23T04:24:18;100420.65;;;13.90;77.20
44441;BME280;30146;52.268;20.944;2022-10-23T04:26:49;100417.61;;;13.88;77.20
44441;BME280;30146;52.268;20.944;2022-10-23T04:29:20;100418.48;;;13.87;77.19
44441;BME280;30146;52.268;20.944;2022-10-23T04:31:53;100424.36;;;13.86;77.23
44441;BME280;30146;52.268;20.944;2022-10-23T04:34:24;100430.39;;;13.85;77.22
44441;BME280;30146;52.268;20.944;2022-10-23T04:36:55;100429.36;;;13.84;77.27
44441;BME280;30146;52.268;20.944;2022-10-23T04:39:26;100431.41;;;13.85;77.30
44441;BME280;30146;52.268;20.944;2022-10-23T04:41:57;100432.95;;;13.86;77.20
44441;BME280;30146;52.268;20.944;2022-10-23T04:44:28;100438.10;;;13.86;77.09
44441;BME280;30146;52.268;20.944;2022-10-23T04:46:59;100436.55;;;13.86;77.18
44441;BME280;30146;52.268;20.944;2022-10-23T04:49:30;100441.18;;;13.87;77.11
44441;BME280;30146;52.268;20.944;2022-10-23T04:52:13;100442.52;;;13.88;77.15
44441;BME280;30146;52.268;20.944;2022-10-23T04:54:54;100440.45;;;13.89;77.26
44441;BME280;30146;52.268;20.944;2022-10-23T04:57:34;100445.92;;;13.90;77.26
44441;BME280;30146;52.268;20.944;2022-10-23T05:00:11;100445.05;;;13.91;77.21
44441;BME280;30146;52.268;20.944;2022-10-23T05:02:51;100446.08;;;13.91;77.23
44441;BME280;30146;52.268;20.944;2022-10-23T05:05:22;100444.02;;;13.90;77.20
44441;BME280;30146;52.268;20.944;2022-10-23T05:08:08;100446.28;;;13.89;77.12
44441;BME280;30146;52.268;20.944;2022-10-23T05:11:09;100444.07;;;13.88;77.01
44441;BME280;30146;52.268;20.944;2022-10-23T05:13:44;100440.71;;;13.84;76.99
44441;BME280;30146;52.268;20.944;2022-10-23T05:16:31;100443.52;;;13.81;76.99
44441;BME280;30146;52.268;20.944;2022-10-23T05:19:08;100444.42;;;13.79;76.94
44441;BME280;30146;52.268;20.944;2022-10-23T05:21:43;100441.57;;;13.76;76.74
44441;BME280;30146;52.268;20.944;2022-10-23T05:24:16;100446.97;;;13.72;76.67
44441;BME280;30146;52.268;20.944;2022-10-23T05:26:56;100448.59;;;13.69;76.66
44441;BME280;30146;52.268;20.944;2022-10-23T05:29:27;100453.29;;;13.65;76.62
44441;BME280;30146;52.268;20.944;2022-10-23T05:32:02;100454.55;;;13.63;76.65
44441;BME280;30146;52.268;20.944;2022-10-23T05:34:36;100452.04;;;13.60;76.69
44441;BME280;30146;52.268;20.944;2022-10-23T05:37:11;100458.92;;;13.59;76.66
44441;BME280;30146;52.268;20.944;2022-10-23T05:39:44;100462.90;;;13.58;76.82
44441;BME280;30146;52.268;20.944;2022-10-23T05:42:16;100475.80;;;13.57;76.75
44441;BME280;30146;52.268;20.944;2022-10-23T05:44:49;100478.73;;;13.56;76.78
44441;BME280;30146;52.268;20.944;2022-10-23T05:47:43;100472.45;;;13.53;76.67
44441;BME280;30146;52.268;20.944;2022-10-23T05:50:45;100474.39;;;13.50;76.69
44441;BME280;30146;52.268;20.944;2022-10-23T05:53:27;100479.55;;;13.49;76.80
44441;BME280;30146;52.268;20.944;2022-10-23T05:56:24;100484.54;;;13.48;76.88
44441;BME280;30146;52.268;20.944;2022-10-23T05:59:02;100481.12;;;13.47;76.87
44441;BME280;30146;52.268;20.944;2022-10-23T06:01:52;100479.30;;;13.44;76.79
44441;BME280;30146;52.268;20.944;2022-10-23T06:04:32;100478.33;;;13.41;76.73
44441;BME280;30146;52.268;20.944;2022-10-23T06:07:24;100475.63;;;13.39;76.84
44441;BME280;30146;52.268;20.944;2022-10-23T06:09:59;100477.89;;;13.37;76.85
44441;BME280;30146;52.268;20.944;2022-10-23T06:12:31;100478.23;;;13.37;76.84
44441;BME280;30146;52.268;20.944;2022-10-23T06:15:03;100479.13;;;13.36;76.82
44441;BME280;30146;52.268;20.944;2022-10-23T06:17:51;100484.78;;;13.36;76.85
44441;BME280;30146;52.268;20.944;2022-10-23T06:20:22;100489.23;;;13.36;76.83
44441;BME280;30146;52.268;20.944;2022-10-23T06:23:05;100494.91;;;13.36;76.82
44441;BME280;30146;52.268;20.944;2022-10-23T06:25:57;100498.88;;;13.35;76.72
44441;BME280;30146;52.268;20.944;2022-10-23T06:28:34;100505.20;;;13.37;76.80
44441;BME280;30146;52.268;20.944;2022-10-23T06:31:06;100503.60;;;13.40;76.95
44441;BME280;30146;52.268;20.944;2022-10-23T06:33:38;100507.28;;;13.44;76.94
44441;BME280;30146;52.268;20.944;2022-10-23T06:36:10;100502.56;;;13.49;77.04
44441;BME280;30146;52.268;20.944;2022-10-23T06:38:43;100502.45;;;13.55;76.98
44441;BME280;30146;52.268;20.944;2022-10-23T06:41:18;100502.21;;;13.68;77.26
44441;BME280;30146;52.268;20.944;2022-10-23T06:43:54;100503.52;;;14.04;77.75
44441;BME280;30146;52.268;20.944;2022-10-23T06:46:28;100509.28;;;14.70;78.62
44441;BME280;30146;52.268;20.944;2022-10-23T06:49:22;100512.79;;;15.44;78.58
44441;BME280;30146;52.268;20.944;2022-10-23T06:51:55;100517.67;;;15.86;77.54
44441;BME280;30146;52.268;20.944;2022-10-23T06:54:26;100519.56;;;15.99;76.23
44441;BME280;30146;52.268;20.944;2022-10-23T06:57:12;100523.89;;;16.04;75.14
44441;BME280;30146;52.268;20.944;2022-10-23T06:59:46;100529.83;;;16.02;74.36
44441;BME280;30146;52.268;20.944;2022-10-23T07:02:18;100529.68;;;15.94;73.93
44441;BME280;30146;52.268;20.944;2022-10-23T07:04:49;100534.92;;;15.86;73.65
44441;BME280;30146;52.268;20.944;2022-10-23T07:07:21;100532.44;;;15.76;73.33
44441;BME280;30146;52.268;20.944;2022-10-23T07:09:52;100528.54;;;15.67;73.21
44441;BME280;30146;52.268;20.944;2022-10-23T07:12:29;100532.08;;;15.57;73.12
44441;BME280;30146;52.268;20.944;2022-10-23T07:15:23;100523.08;;;15.45;73.05
44441;BME280;30146;52.268;20.944;2022-10-23T07:17:54;100519.73;;;15.36;73.12
44441;BME280;30146;52.268;20.944;2022-10-23T07:20:26;100521.98;;;15.28;73.14
44441;BME280;30146;52.268;20.944;2022-10-23T07:22:57;100522.83;;;15.22;73.14
44441;BME280;30146;52.268;20.944;2022-10-23T07:25:33;100527.15;;;15.15;73.26
44441;BME280;30146;52.268;20.944;2022-10-23T07:28:05;100528.63;;;15.10;73.28
44441;BME280;30146;52.268;20.944;2022-10-23T07:30:38;100533.39;;;15.07;73.39
44441;BME280;30146;52.268;20.944;2022-10-23T07:33:12;100530.52;;;15.04;73.60
44441;BME280;30146;52.268;20.944;2022-10-23T07:35:56;100531.43;;;15.02;73.62
44441;BME280;30146;52.268;20.944;2022-10-23T07:38:29;100533.20;;;14.99;73.57
44441;BME280;30146;52.268;20.944;2022-10-23T07:41:01;100530.16;;;14.97;73.52
44441;BME280;30146;52.268;20.944;2022-10-23T07:43:36;100526.45;;;14.94;73.48
44441;BME280;30146;52.268;20.944;2022-10-23T07:46:07;100518.73;;;14.93;73.71
44441;BME280;30146;52.268;20.944;2022-10-23T07:48:41;100517.33;;;14.94;73.70
44441;BME280;30146;52.268;20.944;2022-10-23T07:51:14;100515.95;;;14.94;73.87
44441;BME280;30146;52.268;20.944;2022-10-23T07:53:47;100517.83;;;14.95;73.75
44441;BME280;30146;52.268;20.944;2022-10-23T07:56:28;100514.95;;;15.00;73.82
44441;BME280;30146;52.268;20.944;2022-10-23T07:59:21;100518.85;;;15.09;74.07
44441;BME280;30146;52.268;20.944;2022-10-23T08:01:55;100515.37;;;15.17;74.35
44441;BME280;30146;52.268;20.944;2022-10-23T08:04:31;100514.02;;;15.24;74.26
44441;BME280;30146;52.268;20.944;2022-10-23T08:07:16;100511.79;;;15.30;74.15
44441;BME280;30146;52.268;20.944;2022-10-23T08:09:48;100512.56;;;15.32;74.01
44441;BME280;30146;52.268;20.944;2022-10-23T08:12:19;100512.48;;;15.36;73.96
44441;BME280;30146;52.268;20.944;2022-10-23T08:14:55;100510.85;;;15.39;74.00
44441;BME280;30146;52.268;20.944;2022-10-23T08:17:28;100511.63;;;15.42;73.85
44441;BME280;30146;52.268;20.944;2022-10-23T08:20:12;100510.08;;;15.42;73.60
44441;BME280;30146;52.268;20.944;2022-10-23T08:22:45;100513.95;;;15.45;73.67
44441;BME280;30146;52.268;20.944;2022-10-23T08:25:21;100512.64;;;15.49;73.70
44441;BME280;30146;52.268;20.944;2022-10-23T08:27:54;100513.80;;;15.51;73.79
44441;BME280;30146;52.268;20.944;2022-10-23T08:30:25;100516.11;;;15.54;73.79
44441;BME280;30146;52.268;20.944;2022-10-23T08:32:56;100522.25;;;15.57;73.73
44441;BME280;30146;52.268;20.944;2022-10-23T08:35:27;100520.85;;;15.58;73.57
44441;BME280;30146;52.268;20.944;2022-10-23T08:37:58;100521.13;;;15.60;73.78
44441;BME280;30146;52.268;20.944;2022-10-23T08:40:31;100526.61;;;15.62;73.79
44441;BME280;30146;52.268;20.944;2022-10-23T08:43:35;100528.48;;;15.62;73.78
44441;BME280;30146;52.268;20.944;2022-10-23T08:46:25;100531.94;;;15.62;73.72
44441;BME280;30146;52.268;20.944;2022-10-23T08:49:38;100535.42;;;15.61;73.63
44441;BME280;30146;52.268;20.944;2022-10-23T08:52:16;100535.77;;;15.61;73.60
44441;BME280;30146;52.268;20.944;2022-10-23T08:55:11;100532.66;;;15.61;73.72
44441;BME280;30146;52.268;20.944;2022-10-23T08:57:50;100529.30;;;15.64;73.88
44441;BME280;30146;52.268;20.944;2022-10-23T09:00:22;100534.52;;;15.68;74.07
44441;BME280;30146;52.268;20.944;2022-10-23T09:02:54;100535.10;;;15.72;74.05
44441;BME280;30146;52.268;20.944;2022-10-23T09:05:29;100532.48;;;15.74;74.02
44441;BME280;30146;52.268;20.944;2022-10-23T09:08:17;100529.48;;;15.77;73.99
44441;BME280;30146;52.268;20.944;2022-10-23T09:11:02;100526.65;;;15.80;73.94
44441;BME280;30146;52.268;20.944;2022-10-23T09:14:00;100527.02;;;15.85;74.02
44441;BME280;30146;52.268;20.944;2022-10-23T09:16:45;100527.54;;;15.91;74.10
44441;BME280;30146;52.268;20.944;2022-10-23T09:19:22;100520.61;;;15.98;74.19
44441;BME280;30146;52.268;20.944;2022-10-23T09:21:56;100523.96;;;16.07;74.17
44441;BME280;30146;52.268;20.944;2022-10-23T09:24:28;100525.46;;;16.15;74.07
44441;BME280;30146;52.268;20.944;2022-10-23T09:27:00;100525.29;;;16.21;73.99
44441;BME280;30146;52.268;20.944;2022-10-23T09:29:33;100532.10;;;16.24;73.88
44441;BME280;30146;52.268;20.944;2022-10-23T09:32:06;100534.80;;;16.26;73.79
44441;BME280;30146;52.268;20.944;2022-10-23T09:34:37;100539.98;;;16.26;73.82
44441;BME280;30146;52.268;20.944;2022-10-23T09:37:22;100539.78;;;16.27;73.70
44441;BME280;30146;52.268;20.944;2022-10-23T09:40:11;100544.65;;;16.26;73.55
44441;BME280;30146;52.268;20.944;2022-10-23T09:42:53;100541.08;;;16.24;73.34
44441;BME280;30146;52.268;20.944;2022-10-23T09:45:28;100536.65;;;16.22;73.27
44441;BME280;30146;52.268;20.944;2022-10-23T09:48:14;100535.75;;;16.23;73.43
44441;BME280;30146;52.268;20.944;2022-10-23T09:50:54;100536.73;;;16.25;73.43
44441;BME280;30146;52.268;20.944;2022-10-23T09:53:31;100532.89;;;16.31;73.54
44441;BME280;30146;52.268;20.944;2022-10-23T09:56:04;100531.21;;;16.42;73.57
44441;BME280;30146;52.268;20.944;2022-10-23T09:58:51;100531.94;;;16.52;73.52
44441;BME280;30146;52.268;20.944;2022-10-23T10:01:27;100532.79;;;16.58;73.40
44441;BME280;30146;52.268;20.944;2022-10-23T10:04:12;100533.96;;;16.59;73.06
44441;BME280;30146;52.268;20.944;2022-10-23T10:06:44;100528.19;;;16.56;72.80
44441;BME280;30146;52.268;20.944;2022-10-23T10:09:16;100525.19;;;16.52;72.69
44441;BME280;30146;52.268;20.944;2022-10-23T10:11:51;100523.69;;;16.51;72.62
44441;BME280;30146;52.268;20.944;2022-10-23T10:14:42;100525.34;;;16.48;72.56
44441;BME280;30146;52.268;20.944;2022-10-23T10:17:22;100526.43;;;16.46;72.65
44441;BME280;30146;52.268;20.944;2022-10-23T10:20:22;100527.30;;;16.45;72.82
44441;BME280;30146;52.268;20.944;2022-10-23T10:23:01;100530.08;;;16.45;72.96
44441;BME280;30146;52.268;20.944;2022-10-23T10:25:38;100533.70;;;16.45;72.84
44441;BME280;30146;52.268;20.944;2022-10-23T10:28:28;100532.52;;;16.44;72.81
44441;BME280;30146;52.268;20.944;2022-10-23T10:31:09;100533.94;;;16.43;72.69
44441;BME280;30146;52.268;20.944;2022-10-23T10:33:52;100534.61;;;16.44;72.75
44441;BME280;30146;52.268;20.944;2022-10-23T10:36:39;100535.51;;;16.43;72.66
44441;BME280;30146;52.268;20.944;2022-10-23T10:39:22;100531.45;;;16.40;72.65
44441;BME280;30146;52.268;20.944;2022-10-23T10:42:03;100529.14;;;16.42;72.80
44441;BME280;30146;52.268;20.944;2022-10-23T10:44:47;100529.56;;;16.45;72.93
44441;BME280;30146;52.268;20.944;2022-10-23T10:47:24;100527.86;;;16.44;72.83
44441;BME280;30146;52.268;20.944;2022-10-23T10:50:07;100524.98;;;16.43;72.68
44441;BME280;30146;52.268;20.944;2022-10-23T10:53:15;100523.13;;;16.41;72.64
44441;BME280;30146;52.268;20.944;2022-10-23T10:55:51;100516.16;;;16.38;72.47
44441;BME280;30146;52.268;20.944;2022-10-23T10:58:29;100515.04;;;16.35;72.46
44441;BME280;30146;52.268;20.944;2022-10-23T11:01:04;100513.46;;;16.36;72.50
44441;BME280;30146;52.268;20.944;2022-10-23T11:03:44;100515.77;;;16.39;72.61
44441;BME280;30146;52.268;20.944;2022-10-23T11:06:24;100519.98;;;16.42;72.55
44441;BME280;30146;52.268;20.944;2022-10-23T11:08:57;100515.70;;;16.42;72.43
44441;BME280;30146;52.268;20.944;2022-10-23T11:11:49;100517.48;;;16.40;72.28
44441;BME280;30146;52.268;20.944;2022-10-23T11:14:22;100516.00;;;16.37;72.28
44441;BME280;30146;52.268;20.944;2022-10-23T11:16:58;100511.59;;;16.34;72.16
44441;BME280;30146;52.268;20.944;2022-10-23T11:19:35;100508.48;;;16.29;71.97
44441;BME280;30146;52.268;20.944;2022-10-23T11:22:14;100507.95;;;16.25;72.01
44441;BME280;30146;52.268;20.944;2022-10-23T11:25:19;100510.48;;;16.20;71.94
44441;BME280;30146;52.268;20.944;2022-10-23T11:28:16;100516.14;;;16.15;72.09
44441;BME280;30146;52.268;20.944;2022-10-23T11:31:04;100515.86;;;16.13;72.24
44441;BME280;30146;52.268;20.944;2022-10-23T11:33:55;100510.73;;;16.11;72.34
44441;BME280;30146;52.268;20.944;2022-10-23T11:36:42;100504.71;;;16.11;72.22
44441;BME280;30146;52.268;20.944;2022-10-23T11:39:19;100506.02;;;16.14;72.46
44441;BME280;30146;52.268;20.944;2022-10-23T11:42:13;100502.97;;;16.17;72.50
44441;BME280;30146;52.268;20.944;2022-10-23T11:44:46;100503.55;;;16.22;72.53
44441;BME280;30146;52.268;20.944;2022-10-23T11:47:29;100496.13;;;16.27;72.51
44441;BME280;30146;52.268;20.944;2022-10-23T11:50:27;100493.80;;;16.36;72.60
44441;BME280;30146;52.268;20.944;2022-10-23T11:53:04;100495.14;;;16.48;72.65
44441;BME280;30146;52.268;20.944;2022-10-23T11:56:02;100489.63;;;16.64;72.70
44441;BME280;30146;52.268;20.944;2022-10-23T11:58:44;100480.92;;;16.83;72.67
44441;BME280;30146;52.268;20.944;2022-10-23T12:01:28;100483.33;;;16.99;72.52
44441;BME280;30146;52.268;20.944;2022-10-23T12:04:04;100479.55;;;17.08;72.14
44441;BME280;30146;52.268;20.944;2022-10-23T12:06:45;100478.94;;;17.16;71.84
44441;BME280;30146;52.268;20.944;2022-10-23T12:09:32;100480.96;;;17.23;71.83
44441;BME280;30146;52.268;20.944;2022-10-23T12:12:26;100477.46;;;17.29;71.63
44441;BME280;30146;52.268;20.944;2022-10-23T12:15:21;100473.44;;;17.35;71.58
44441;BME280;30146;52.268;20.944;2022-10-23T12:17:54;100474.88;;;17.39;71.23
44441;BME280;30146;52.268;20.944;2022-10-23T12:20:40;100472.41;;;17.40;71.11
44441;BME280;30146;52.268;20.944;2022-10-23T12:23:27;100467.06;;;17.40;71.04
44441;BME280;30146;52.268;20.944;2022-10-23T12:26:27;100469.45;;;17.36;70.76
44441;BME280;30146;52.268;20.944;2022-10-23T12:29:11;100471.40;;;17.29;70.68
44441;BME280;30146;52.268;20.944;2022-10-23T12:31:54;100472.60;;;17.24;70.73
44441;BME280;30146;52.268;20.944;2022-10-23T12:34:38;100477.29;;;17.19;70.69
44441;BME280;30146;52.268;20.944;2022-10-23T12:37:34;100480.20;;;17.14;70.67
44441;BME280;30146;52.268;20.944;2022-10-23T12:40:09;100480.93;;;17.08;70.68
44441;BME280;30146;52.268;20.944;2022-10-23T12:42:50;100482.30;;;17.04;70.61
44441;BME280;30146;52.268;20.944;2022-10-23T12:45:24;100486.88;;;16.97;70.58
44441;BME280;30146;52.268;20.944;2022-10-23T12:47:56;100487.55;;;16.91;70.60
44441;BME280;30146;52.268;20.944;2022-10-23T12:50:28;100486.19;;;16.86;70.64
44441;BME280;30146;52.268;20.944;2022-10-23T12:53:01;100483.42;;;16.80;70.61
44441;BME280;30146;52.268;20.944;2022-10-23T12:55:48;100483.56;;;16.75;70.64
44441;BME280;30146;52.268;20.944;2022-10-23T12:58:23;100486.31;;;16.70;70.66
44441;BME280;30146;52.268;20.944;2022-10-23T13:00:58;100489.40;;;16.66;70.65
44441;BME280;30146;52.268;20.944;2022-10-23T13:03:31;100491.91;;;16.63;70.69
44441;BME280;30146;52.268;20.944;2022-10-23T13:06:04;100491.66;;;16.60;70.68
44441;BME280;30146;52.268;20.944;2022-10-23T13:08:39;100490.86;;;16.58;70.72
44441;BME280;30146;52.268;20.944;2022-10-23T13:11:26;100491.24;;;16.57;70.76
44441;BME280;30146;52.268;20.944;2022-10-23T13:13:59;100493.35;;;16.56;70.82
44441;BME280;30146;52.268;20.944;2022-10-23T13:16:30;100495.45;;;16.54;70.86
44441;BME280;30146;52.268;20.944;2022-10-23T13:19:01;100496.86;;;16.53;70.89
44441;BME280;30146;52.268;20.944;2022-10-23T13:21:32;100496.77;;;16.50;70.95
44441;BME280;30146;52.268;20.944;2022-10-23T13:24:14;100495.14;;;16.48;70.88
44441;BME280;30146;52.268;20.944;2022-10-23T13:26:47;100494.73;;;16.44;70.89
44441;BME280;30146;52.268;20.944;2022-10-23T13:29:20;100492.57;;;16.42;70.91
44441;BME280;30146;52.268;20.944;2022-10-23T13:31:53;100491.92;;;16.41;71.00
44441;BME280;30146;52.268;20.944;2022-10-23T13:34:26;100492.14;;;16.39;71.08
44441;BME280;30146;52.268;20.944;2022-10-23T13:37:01;100492.02;;;16.37;71.22